createdAt,value
2017-11-28T00:00:48.405Z,4.12
2017-11-28T00:03:17.521Z,3.53
2017-11-28T00:05:45.840Z,3.55
2017-11-28T00:08:14.159Z,3.45
2017-11-28T00:10:42.757Z,3.53
2017-11-28T00:13:11.582Z,3.47
2017-11-28T00:15:39.930Z,3.30
2017-11-28T00:18:08.501Z,3.08
2017-11-28T00:20:36.817Z,3.75
2017-11-28T00:23:05.140Z,3.08
2017-11-28T00:25:33.490Z,3.92
2017-11-28T00:28:01.802Z,2.90
2017-11-28T00:30:30.098Z,3.10
2017-11-28T00:32:58.452Z,3.20
2017-11-28T00:35:26.800Z,3.00
2017-11-28T00:37:55.126Z,2.58
2017-11-28T00:40:23.826Z,3.10
2017-11-28T00:42:52.139Z,3.12
2017-11-28T00:45:20.459Z,3.20
2017-11-28T00:47:48.774Z,3.75
2017-11-28T00:50:17.889Z,2.40
2017-11-28T00:52:46.212Z,3.00
2017-11-28T00:55:14.557Z,3.08
2017-11-28T00:57:42.883Z,3.45
2017-11-28T01:00:11.187Z,3.35
2017-11-28T01:02:40.789Z,3.47
2017-11-28T01:05:09.907Z,3.62
2017-11-28T01:07:38.296Z,3.78
2017-11-28T01:10:06.623Z,3.60
2017-11-28T01:12:35.048Z,3.78
2017-11-28T01:15:03.397Z,3.90
2017-11-28T01:17:31.771Z,3.30
2017-11-28T01:20:00.085Z,3.85
2017-11-28T01:22:28.409Z,3.17
2017-11-28T01:24:57.115Z,3.70
2017-11-28T01:27:25.465Z,3.12
2017-11-28T01:29:53.777Z,2.55
2017-11-28T01:32:22.910Z,2.40
2017-11-28T01:34:51.230Z,2.00
2017-11-28T01:37:19.558Z,1.80
2017-11-28T01:39:47.902Z,1.60
2017-11-28T01:42:16.207Z,2.20
2017-11-28T01:44:44.535Z,1.75
2017-11-28T01:47:12.951Z,1.80
2017-11-28T01:49:41.276Z,2.22
2017-11-28T01:52:09.577Z,1.42
2017-11-28T01:54:37.938Z,1.60
2017-11-28T01:57:06.267Z,1.55
2017-11-28T01:59:34.590Z,1.65
2017-11-28T02:02:02.916Z,1.77
2017-11-28T02:04:32.093Z,1.65
2017-11-28T02:07:00.421Z,1.42
2017-11-28T02:09:28.832Z,1.70
2017-11-28T02:11:57.177Z,1.30
2017-11-28T02:14:26.278Z,2.00
2017-11-28T02:16:54.617Z,1.60
2017-11-28T02:19:23.009Z,1.67
2017-11-28T02:21:52.128Z,1.70
2017-11-28T02:24:21.214Z,1.90
2017-11-28T02:26:50.284Z,2.00
2017-11-28T02:29:18.627Z,2.37
2017-11-28T02:31:57.743Z,2.80
2017-11-28T02:34:26.055Z,2.58
2017-11-28T02:36:54.413Z,2.65
2017-11-28T02:39:22.786Z,2.92
2017-11-28T02:41:51.078Z,3.17
2017-11-28T02:44:20.295Z,3.78
2017-11-28T02:46:48.643Z,3.72
2017-11-28T02:52:23.554Z,3.97
2017-11-28T02:55:11.170Z,4.32
2017-11-28T02:57:41.065Z,4.87
2017-11-28T03:00:10.190Z,4.50
2017-11-28T03:02:39.296Z,4.12
2017-11-28T03:05:08.399Z,4.15
2017-11-28T03:07:39.634Z,4.68
2017-11-28T03:10:17.437Z,3.60
2017-11-28T03:12:51.959Z,3.55
2017-11-28T03:18:23.362Z,4.97
2017-11-28T03:20:58.461Z,3.62
2017-11-28T03:26:45.466Z,4.05
2017-11-28T03:29:17.503Z,4.20
2017-11-28T03:31:45.826Z,4.10
2017-11-28T03:34:17.973Z,4.10
2017-11-28T03:36:46.363Z,5.15
2017-11-28T03:39:14.772Z,4.90
2017-11-28T03:41:43.191Z,4.55
2017-11-28T03:47:24.722Z,5.37
2017-11-28T03:49:53.784Z,5.37
2017-11-28T03:52:22.082Z,5.18
2017-11-28T03:54:50.434Z,5.65
2017-11-28T03:57:18.751Z,4.72
2017-11-28T03:59:47.095Z,5.45
2017-11-28T04:02:15.479Z,6.40
2017-11-28T04:04:43.889Z,5.65
2017-11-28T04:07:12.255Z,5.53
2017-11-28T04:09:40.715Z,5.20
2017-11-28T04:12:09.043Z,5.43
2017-11-28T04:14:39.033Z,5.35
2017-11-28T04:17:07.687Z,5.30
2017-11-28T04:19:35.987Z,5.18
2017-11-28T04:22:05.189Z,6.20
2017-11-28T04:24:33.548Z,5.18
2017-11-28T04:27:01.833Z,4.97
2017-11-28T04:29:30.185Z,5.40
2017-11-28T04:31:58.872Z,4.57
2017-11-28T04:34:29.845Z,5.43
2017-11-28T04:36:58.155Z,5.30
2017-11-28T04:39:26.532Z,5.15
2017-11-28T04:41:54.925Z,5.10
2017-11-28T04:44:23.285Z,5.25
2017-11-28T04:46:51.662Z,4.68
2017-11-28T04:49:20.002Z,5.30
2017-11-28T04:51:49.226Z,5.10
2017-11-28T04:54:17.675Z,4.70
2017-11-28T04:56:46.811Z,5.28
2017-11-28T04:59:15.887Z,5.55
2017-11-28T05:01:44.223Z,4.70
2017-11-28T05:04:13.281Z,4.90
2017-11-28T05:06:41.594Z,5.60
2017-11-28T05:09:10.728Z,5.32
2017-11-28T05:11:39.137Z,5.07
2017-11-28T05:14:07.448Z,4.95
2017-11-28T05:16:36.691Z,4.62
2017-11-28T05:19:05.069Z,6.43
2017-11-28T05:21:33.411Z,5.68
2017-11-28T05:24:01.781Z,5.45
2017-11-28T05:26:30.875Z,5.03
2017-11-28T05:28:59.949Z,4.50
2017-11-28T05:31:28.329Z,5.15
2017-11-28T05:33:56.659Z,4.97
2017-11-28T05:36:24.970Z,5.25
2017-11-28T05:38:53.607Z,5.15
2017-11-28T05:41:21.972Z,5.28
2017-11-28T05:43:51.112Z,5.25
2017-11-28T05:46:20.309Z,5.37
2017-11-28T05:48:48.616Z,5.10
2017-11-28T05:51:16.969Z,4.90
2017-11-28T05:53:45.343Z,4.85
2017-11-28T05:56:14.614Z,5.60
2017-11-28T06:01:13.692Z,3.80
2017-11-28T06:03:42.036Z,4.28
2017-11-28T06:06:10.408Z,4.90
2017-11-28T06:08:39.307Z,4.65
2017-11-28T06:11:08.433Z,5.85
2017-11-28T06:13:36.725Z,4.87
2017-11-28T06:16:05.106Z,5.40
2017-11-28T06:18:33.470Z,5.30
2017-11-28T06:21:02.375Z,5.62
2017-11-28T06:23:30.841Z,5.22
2017-11-28T06:25:59.198Z,5.35
2017-11-28T06:28:27.544Z,4.85
2017-11-28T06:30:55.928Z,4.50
2017-11-28T06:33:24.265Z,4.40
2017-11-28T06:35:52.642Z,4.10
2017-11-28T06:38:20.999Z,4.30
2017-11-28T06:40:49.363Z,5.10
2017-11-28T06:43:17.674Z,4.65
2017-11-28T06:45:46.877Z,4.78
2017-11-28T06:48:15.220Z,5.30
2017-11-28T06:50:43.549Z,4.97
2017-11-28T06:53:12.110Z,5.00
2017-11-28T06:55:41.526Z,5.40
2017-11-28T06:58:09.933Z,4.43
2017-11-28T07:00:38.270Z,5.00
2017-11-28T07:03:06.564Z,5.65
2017-11-28T07:05:34.881Z,4.85
2017-11-28T07:08:03.288Z,4.53
2017-11-28T07:10:32.360Z,4.40
2017-11-28T07:13:02.929Z,4.87
2017-11-28T07:15:31.259Z,5.05
2017-11-28T07:17:59.602Z,4.62
2017-11-28T07:20:28.026Z,6.22
2017-11-28T07:22:56.401Z,6.70
2017-11-28T07:25:24.737Z,4.80
2017-11-28T07:27:54.280Z,5.40
2017-11-28T07:30:23.866Z,6.00
2017-11-28T07:32:52.925Z,4.55
2017-11-28T07:35:21.259Z,4.80
2017-11-28T07:37:49.637Z,5.03
2017-11-28T07:40:17.969Z,5.70
2017-11-28T07:42:46.349Z,5.30
2017-11-28T07:45:14.694Z,5.28
2017-11-28T07:47:43.030Z,5.80
2017-11-28T07:50:11.456Z,4.90
2017-11-28T07:52:40.862Z,5.05
2017-11-28T07:55:09.228Z,5.10
2017-11-28T07:57:38.114Z,5.57
2017-11-28T08:00:06.495Z,5.57
2017-11-28T08:02:34.863Z,5.60
2017-11-28T08:05:04.003Z,4.90
2017-11-28T08:07:32.345Z,5.30
2017-11-28T08:10:01.483Z,5.10
2017-11-28T08:12:29.835Z,5.35
2017-11-28T08:14:58.230Z,5.25
2017-11-28T08:17:26.587Z,6.30
2017-11-28T08:19:55.158Z,5.30
2017-11-28T08:22:24.488Z,5.40
2017-11-28T08:24:52.807Z,5.22
2017-11-28T08:27:21.118Z,5.07
2017-11-28T08:29:49.527Z,6.43
2017-11-28T08:32:17.901Z,5.47
2017-11-28T08:34:46.230Z,5.45
2017-11-28T08:37:14.931Z,5.57
2017-11-28T08:39:44.038Z,5.97
2017-11-28T08:42:12.386Z,5.97
2017-11-28T08:44:41.648Z,5.28
2017-11-28T08:47:09.973Z,5.95
2017-11-28T08:49:39.202Z,6.85
2017-11-28T08:52:07.553Z,7.18
2017-11-28T08:54:35.888Z,6.47
2017-11-28T08:57:04.295Z,6.10
2017-11-28T08:59:32.941Z,6.40
2017-11-28T09:02:01.262Z,7.22
2017-11-28T09:04:29.603Z,6.50
2017-11-28T09:06:57.988Z,6.30
2017-11-28T09:09:27.355Z,7.00
2017-11-28T09:11:56.469Z,6.60
2017-11-28T09:14:24.843Z,6.00
2017-11-28T09:16:53.189Z,6.30
2017-11-28T09:19:21.513Z,6.18
2017-11-28T09:21:50.155Z,7.68
2017-11-28T09:24:19.274Z,7.20
2017-11-28T09:26:47.634Z,6.68
2017-11-28T09:29:16.007Z,7.03
2017-11-28T09:31:45.375Z,6.57
2017-11-28T09:34:14.587Z,6.90
2017-11-28T09:36:42.921Z,6.80
2017-11-28T09:39:11.249Z,7.60
2017-11-28T09:41:39.595Z,7.45
2017-11-28T09:44:07.990Z,8.15
2017-11-28T09:46:36.342Z,6.20
2017-11-28T09:49:04.709Z,7.37
2017-11-28T09:51:33.045Z,7.43
2017-11-28T09:54:01.410Z,7.57
2017-11-28T09:56:29.737Z,6.40
2017-11-28T09:58:58.067Z,6.30
2017-11-28T10:01:26.397Z,6.47
2017-11-28T10:03:54.723Z,6.80
2017-11-28T10:06:23.250Z,6.65
2017-11-28T10:08:52.340Z,6.20
2017-11-28T10:11:21.426Z,6.78
2017-11-28T10:13:50.546Z,6.15
2017-11-28T10:16:18.864Z,6.12
2017-11-28T10:18:47.210Z,6.70
2017-11-28T10:21:15.560Z,6.05
2017-11-28T10:23:44.658Z,5.57
2017-11-28T10:26:13.760Z,5.70
2017-11-28T10:28:43.144Z,5.20
2017-11-28T10:31:11.469Z,5.67
2017-11-28T10:33:39.766Z,5.37
2017-11-28T10:36:08.107Z,4.70
2017-11-28T10:38:36.468Z,6.55
2017-11-28T10:41:05.631Z,4.78
2017-11-28T10:43:33.993Z,5.30
2017-11-28T10:46:02.320Z,6.33
2017-11-28T10:48:30.673Z,6.07
2017-11-28T10:50:59.077Z,5.27
2017-11-28T10:53:27.398Z,5.87
2017-11-28T10:55:55.698Z,6.10
2017-11-28T10:58:24.038Z,5.63
2017-11-28T11:00:53.093Z,5.50
2017-11-28T11:03:21.548Z,5.20
2017-11-28T11:05:50.687Z,5.10
2017-11-28T11:08:19.030Z,4.90
2017-11-28T11:10:47.330Z,4.70
2017-11-28T11:13:15.741Z,4.90
2017-11-28T11:15:44.830Z,4.73
2017-11-28T11:18:13.903Z,4.67
2017-11-28T11:20:42.245Z,4.37
2017-11-28T11:23:10.555Z,4.87
2017-11-28T11:25:38.853Z,5.43
2017-11-28T11:28:07.194Z,6.00
2017-11-28T11:30:35.510Z,4.30
2017-11-28T11:33:04.599Z,5.00
2017-11-28T11:35:33.113Z,4.07
2017-11-28T11:38:01.442Z,4.60
2017-11-28T11:40:29.777Z,4.60
2017-11-28T11:42:58.110Z,3.97
2017-11-28T11:45:26.444Z,3.90
2017-11-28T11:47:54.796Z,4.97
2017-11-28T11:50:23.135Z,4.20
2017-11-28T11:52:51.455Z,3.80
2017-11-28T11:55:19.797Z,4.20
2017-11-28T11:57:48.343Z,3.55
2017-11-28T12:00:16.643Z,3.70
2017-11-28T12:02:44.969Z,3.73
2017-11-28T12:05:13.365Z,3.90
2017-11-28T12:07:41.690Z,4.13
2017-11-28T12:10:10.022Z,4.40
2017-11-28T12:12:40.086Z,4.27
2017-11-28T12:15:10.253Z,4.00
2017-11-28T12:17:43.129Z,3.90
2017-11-28T12:20:11.956Z,4.40
2017-11-28T12:22:43.711Z,3.40
2017-11-28T12:25:14.573Z,5.50
2017-11-28T12:27:42.924Z,4.00
2017-11-28T12:30:11.357Z,2.80
2017-11-28T12:32:39.647Z,3.33
2017-11-28T12:35:09.424Z,3.77
2017-11-28T12:37:38.277Z,5.03
2017-11-28T12:40:06.614Z,3.80
2017-11-28T12:42:34.923Z,4.00
2017-11-28T12:45:03.266Z,4.47
2017-11-28T12:47:31.613Z,3.50
2017-11-28T12:49:59.913Z,2.97
2017-11-28T12:52:28.328Z,3.10
2017-11-28T12:54:56.669Z,4.10
2017-11-28T12:57:25.159Z,4.20
2017-11-28T12:59:53.667Z,3.43
2017-11-28T13:02:22.067Z,3.70
2017-11-28T13:04:50.390Z,4.10
2017-11-28T13:07:18.752Z,3.87
2017-11-28T13:09:47.262Z,3.60
2017-11-28T13:12:15.626Z,3.90
2017-11-28T13:14:45.024Z,3.47
2017-11-28T13:17:13.545Z,3.60
2017-11-28T13:19:41.949Z,3.90
2017-11-28T13:22:10.470Z,3.20
2017-11-28T13:24:38.778Z,3.27
2017-11-28T13:27:07.851Z,3.60
2017-11-28T13:29:37.484Z,4.03
2017-11-28T13:32:05.803Z,3.40
2017-11-28T13:34:34.137Z,3.47
2017-11-28T13:37:03.249Z,3.53
2017-11-28T13:39:31.591Z,3.27
2017-11-28T13:41:59.948Z,4.00
2017-11-28T13:44:29.260Z,3.13
2017-11-28T13:46:57.602Z,2.97
2017-11-28T13:49:25.925Z,3.27
2017-11-28T13:51:54.292Z,2.40
2017-11-28T13:54:22.617Z,2.93
2017-11-28T13:56:50.945Z,2.50
2017-11-28T13:59:19.286Z,2.53
2017-11-28T14:01:47.625Z,2.60
2017-11-28T14:04:15.956Z,2.80
2017-11-28T14:06:44.563Z,3.10
2017-11-28T14:09:12.863Z,2.50
2017-11-28T14:11:41.156Z,3.30
2017-11-28T14:14:10.271Z,3.60
2017-11-28T14:16:39.665Z,2.77
2017-11-28T14:19:08.020Z,3.83
2017-11-28T14:21:46.659Z,3.03
2017-11-28T14:27:21.365Z,2.43
2017-11-28T14:29:53.116Z,3.10
2017-11-28T14:32:39.911Z,2.95
2017-11-28T14:35:18.188Z,2.70
2017-11-28T14:37:47.846Z,3.37
2017-11-28T14:40:17.905Z,3.10
2017-11-28T14:42:47.177Z,3.73
2017-11-28T14:45:15.565Z,3.00
2017-11-28T14:47:44.722Z,3.73
2017-11-28T14:50:13.094Z,2.50
2017-11-28T14:52:45.353Z,3.60
2017-11-28T14:55:20.087Z,2.90
2017-11-28T14:57:48.912Z,2.40
2017-11-28T15:00:22.573Z,2.80
2017-11-28T15:05:58.922Z,3.33
2017-11-28T15:08:40.702Z,2.97
2017-11-28T15:14:17.562Z,2.37
2017-11-28T15:16:51.407Z,2.22
2017-11-28T15:22:23.401Z,3.15
2017-11-28T15:24:57.409Z,2.50
2017-11-28T15:27:27.357Z,2.75
2017-11-28T15:29:56.496Z,2.55
2017-11-28T15:32:25.248Z,2.73
2017-11-28T15:34:53.720Z,3.15
2017-11-28T15:37:22.084Z,3.50
2017-11-28T15:39:50.440Z,2.87
2017-11-28T15:42:18.755Z,4.33
2017-11-28T15:44:47.069Z,3.03
2017-11-28T15:47:15.463Z,3.10
2017-11-28T15:49:43.833Z,3.05
2017-11-28T15:52:12.170Z,2.95
2017-11-28T15:54:40.791Z,2.62
2017-11-28T15:57:09.127Z,3.00
2017-11-28T15:59:37.432Z,3.90
2017-11-28T16:02:05.854Z,2.87
2017-11-28T16:04:34.946Z,2.45
2017-11-28T16:07:03.310Z,3.42
2017-11-28T16:09:31.662Z,2.92
2017-11-28T16:12:00.004Z,2.78
2017-11-28T16:14:29.106Z,3.35
2017-11-28T16:16:57.775Z,4.10
2017-11-28T16:19:26.098Z,3.95
2017-11-28T16:21:55.222Z,3.60
2017-11-28T16:24:23.582Z,3.80
2017-11-28T16:26:51.934Z,3.10
2017-11-28T16:29:21.050Z,9.27
2017-11-28T16:31:50.185Z,3.15
2017-11-28T16:34:18.532Z,3.40
2017-11-28T16:36:46.858Z,3.35
2017-11-28T16:39:15.286Z,4.53
2017-11-28T16:41:43.629Z,3.95
2017-11-28T16:44:11.939Z,4.05
2017-11-28T16:46:41.067Z,3.25
2017-11-28T16:49:09.424Z,3.60
2017-11-28T16:51:37.759Z,2.95
2017-11-28T16:54:06.105Z,3.45
2017-11-28T16:56:34.452Z,3.33
2017-11-28T16:59:03.606Z,3.90
2017-11-28T17:01:32.191Z,3.70
2017-11-28T17:04:00.574Z,3.72
2017-11-28T17:06:28.918Z,3.20
2017-11-28T17:08:57.580Z,3.45
2017-11-28T17:11:25.982Z,3.10
2017-11-28T17:13:54.435Z,3.60
2017-11-28T17:16:23.205Z,3.00
2017-11-28T17:18:51.702Z,3.28
2017-11-28T17:21:20.916Z,3.00
2017-11-28T17:23:49.520Z,3.72
2017-11-28T17:26:18.068Z,2.97
2017-11-28T17:28:46.645Z,2.33
2017-11-28T17:31:16.629Z,2.50
2017-11-28T17:33:45.246Z,2.80
2017-11-28T17:36:13.672Z,2.83
2017-11-28T17:38:42.129Z,2.80
2017-11-28T17:41:10.455Z,2.17
2017-11-28T17:43:38.780Z,2.42
2017-11-28T17:46:08.045Z,2.85
2017-11-28T17:48:36.347Z,2.60
2017-11-28T17:51:04.718Z,3.20
2017-11-28T17:53:33.088Z,2.78
2017-11-28T17:56:01.415Z,2.35
2017-11-28T17:58:29.758Z,2.95
2017-11-28T18:00:58.107Z,2.33
2017-11-28T18:03:27.261Z,2.53
2017-11-28T18:05:55.957Z,3.10
2017-11-28T18:08:24.347Z,3.33
2017-11-28T18:10:52.654Z,2.65
2017-11-28T18:13:21.082Z,3.22
2017-11-28T18:15:49.412Z,2.55
2017-11-28T18:18:18.496Z,3.10
2017-11-28T18:20:47.635Z,2.55
2017-11-28T18:23:16.782Z,3.00
2017-11-28T18:25:45.128Z,3.50
2017-11-28T18:28:13.494Z,3.08
2017-11-28T18:30:42.902Z,3.05
2017-11-28T18:33:11.315Z,3.67
2017-11-28T18:35:39.656Z,3.90
2017-11-28T18:38:08.031Z,3.70
2017-11-28T18:40:37.162Z,3.90
2017-11-28T18:43:05.524Z,4.30
2017-11-28T18:45:34.385Z,3.80
2017-11-28T18:48:03.664Z,5.32
2017-11-28T18:50:32.032Z,4.45
2017-11-28T18:53:00.453Z,4.35
2017-11-28T18:55:28.814Z,4.35
2017-11-28T18:57:57.187Z,4.18
2017-11-28T19:00:27.122Z,3.95
2017-11-28T19:02:55.472Z,4.00
2017-11-28T19:05:23.900Z,4.40
2017-11-28T19:07:52.239Z,4.10
2017-11-28T19:10:20.832Z,4.07
2017-11-28T19:12:49.212Z,3.80
2017-11-28T19:15:18.384Z,4.70
2017-11-28T19:17:46.761Z,3.75
2017-11-28T19:20:15.355Z,3.67
2017-11-28T19:22:43.822Z,4.70
2017-11-28T19:25:12.189Z,4.12
2017-11-28T19:27:40.655Z,3.55
2017-11-28T19:30:09.241Z,4.28
2017-11-28T19:32:37.650Z,4.00
2017-11-28T19:35:05.997Z,3.87
2017-11-28T19:37:34.778Z,4.20
2017-11-28T19:40:03.125Z,4.62
2017-11-28T19:42:31.484Z,4.53
2017-11-28T19:44:59.858Z,5.12
2017-11-28T19:47:28.211Z,4.20
2017-11-28T19:49:56.585Z,3.90
2017-11-28T19:52:24.956Z,4.43
2017-11-28T19:54:53.290Z,4.28
2017-11-28T19:57:21.632Z,3.85
2017-11-28T19:59:50.341Z,4.45
2017-11-28T20:02:19.437Z,4.15
2017-11-28T20:04:47.767Z,3.97
2017-11-28T20:07:16.944Z,5.20
2017-11-28T20:09:45.269Z,4.87
2017-11-28T20:12:13.681Z,4.07
2017-11-28T20:14:42.056Z,4.97
2017-11-28T20:17:10.827Z,5.57
2017-11-28T20:19:39.164Z,5.00
2017-11-28T20:22:07.991Z,5.75
2017-11-28T20:24:36.334Z,5.55
2017-11-28T20:27:04.722Z,6.20
2017-11-28T20:29:33.857Z,5.60
2017-11-28T20:32:02.250Z,6.22
2017-11-28T20:34:30.582Z,6.80
2017-11-28T20:36:59.724Z,6.78
2017-11-28T20:39:28.062Z,7.20
2017-11-28T20:41:56.564Z,6.75
2017-11-28T20:44:25.018Z,9.85
2017-11-28T20:46:53.388Z,7.60
2017-11-28T20:49:28.139Z,8.93
2017-11-28T20:51:56.548Z,8.05
2017-11-28T20:54:24.853Z,8.00
2017-11-28T20:56:53.235Z,8.20
2017-11-28T20:59:21.594Z,8.15
2017-11-28T21:01:49.913Z,7.72
2017-11-28T21:04:19.257Z,8.65
2017-11-28T21:06:47.607Z,8.75
2017-11-28T21:09:16.891Z,8.30
2017-11-28T21:11:46.043Z,9.25
2017-11-28T21:14:14.624Z,9.38
2017-11-28T21:16:42.958Z,9.25
2017-11-28T21:19:12.124Z,9.10
2017-11-28T21:21:40.545Z,9.27
2017-11-28T21:24:09.246Z,9.85
2017-11-28T21:26:37.872Z,9.68
2017-11-28T21:29:06.249Z,10.85
2017-11-28T21:31:34.626Z,10.30
2017-11-28T21:34:03.030Z,10.10
2017-11-28T21:36:31.383Z,9.00
2017-11-28T21:38:59.807Z,10.65
2017-11-28T21:41:28.205Z,10.70
2017-11-28T21:43:56.541Z,11.68
2017-11-28T21:46:24.883Z,9.90
2017-11-28T21:48:53.364Z,10.65
2017-11-28T21:51:21.739Z,11.77
2017-11-28T21:53:50.077Z,10.90
2017-11-28T21:56:18.415Z,10.82
2017-11-28T21:58:47.506Z,10.93
2017-11-28T22:01:15.886Z,11.00
2017-11-28T22:03:44.267Z,10.85
2017-11-28T22:06:12.628Z,12.35
2017-11-28T22:08:42.454Z,11.30
2017-11-28T22:11:10.973Z,11.88
2017-11-28T22:13:40.072Z,11.05
2017-11-28T22:16:09.158Z,12.10
2017-11-28T22:18:37.545Z,12.50
2017-11-28T22:21:05.911Z,12.75
2017-11-28T22:23:34.259Z,13.20
2017-11-28T22:26:02.614Z,12.68
2017-11-28T22:28:31.623Z,13.20
2017-11-28T22:30:59.995Z,14.10
2017-11-28T22:33:28.501Z,14.05
2017-11-28T22:35:56.834Z,13.88
2017-11-28T22:38:25.905Z,14.48
2017-11-28T22:40:55.053Z,14.23
2017-11-28T22:43:24.442Z,14.63
2017-11-28T22:45:52.796Z,14.20
2017-11-28T22:48:21.954Z,14.40
2017-11-28T22:50:50.644Z,13.60
2017-11-28T22:53:18.956Z,14.32
2017-11-28T22:55:48.310Z,14.50
2017-11-28T22:58:16.658Z,14.85
2017-11-28T23:00:44.997Z,15.20
2017-11-28T23:03:13.380Z,14.90
2017-11-28T23:05:41.701Z,16.58
2017-11-28T23:08:10.032Z,15.57
2017-11-28T23:10:39.176Z,15.90
2017-11-28T23:13:07.506Z,17.37
2017-11-28T23:15:35.849Z,16.05
2017-11-28T23:18:04.312Z,16.65
2017-11-28T23:20:33.565Z,15.95
2017-11-28T23:23:01.900Z,16.20
2017-11-28T23:25:30.289Z,17.12
2017-11-28T23:27:58.924Z,16.10
2017-11-28T23:30:27.253Z,15.13
2017-11-28T23:32:55.618Z,15.57
2017-11-28T23:35:23.942Z,15.60
2017-11-28T23:37:52.265Z,15.70
2017-11-28T23:40:20.716Z,15.82
2017-11-28T23:42:49.033Z,15.02
2017-11-28T23:45:17.372Z,17.10
2017-11-28T23:47:45.734Z,16.33
2017-11-28T23:50:14.125Z,17.10
2017-11-28T23:52:42.442Z,18.08
2017-11-28T23:55:10.823Z,16.40
2017-11-28T23:57:39.140Z,16.80
